Paramount Hamilton — 2CWB2 — position and weather

sailwx.info

Track history (hours):
 
Tides and Currents Weather Stations Pressure Air Temp Water Temp Dewpoint Dewpoint Depression Visibility Wind Speed Wind Dir Waves Ship Positions

Paramount Hamilton

Last reported at 2016-Jul-14 06:23 UTC. Time now 2016-Jul-29 21:46 UTC.
Position N 26°34' W 079°42'.
Warning: this ship's position is 15 days out of date.

Length 249 m; draft 11.7 m.

Type: Tanker. MMSI: 235076274.

Date/timePositionNaut miles runAvg speedWind from/ knotsBaromVisibWave heightAir tempDewpointWater temp
2016-Jul-14 06:23N 26°34' W 079°42'1517.7
2016-Jul-14 05:33N 26°19' W 079°44'1817.6
2016-Jul-14 04:33N 26°02' W 079°46'  
2016-Jul-11 22:33N 29°43' W 089°59'1010.0
2016-Jul-11 21:33N 29°53' W 089°57'6 5.6
2016-Jul-11 20:33N 29°57' W 090°01'7 7.1
2016-Jul-11 19:33N 29°57' W 090°09'  
2016-Jul-09 13:26N 29°58' W 090°17'5 6.3
2016-Jul-09 12:33N 29°56' W 090°11'5 5.1
2016-Jul-09 11:33N 29°55' W 090°06'6 5.7
2016-Jul-09 10:33N 29°56' W 089°59'3 3.5
2016-Jul-09 09:33N 29°53' W 089°57'0 0.0
2016-Jul-09 08:33N 29°53' W 089°57'0 0.0
2016-Jul-09 07:33N 29°53' W 089°57'0 0.0
2016-Jul-09 06:27N 29°53' W 089°57'0 0.0
2016-Jul-09 04:30N 29°53' W 089°57'0 0.0
2016-Jul-09 03:27N 29°53' W 089°57'0 0.0
2016-Jul-09 02:33N 29°53' W 089°57'0 0.0
2016-Jul-09 01:33N 29°53' W 089°57'0 0.0
2016-Jul-09 00:33N 29°53' W 089°57'0 0.0
2016-Jul-08 23:33N 29°53' W 089°57'0 0.0
2016-Jul-08 22:33N 29°53' W 089°57'0 0.0
2016-Jul-08 21:33N 29°53' W 089°57'0 0.0
2016-Jul-08 20:33N 29°53' W 089°57'0 0.0
2016-Jul-08 19:33N 29°53' W 089°57'0 0.0
2016-Jul-08 18:33N 29°53' W 089°57'0 0.0
2016-Jul-08 17:30N 29°53' W 089°57'0 0.0
2016-Jul-08 16:33N 29°53' W 089°57'0 0.0
2016-Jul-08 15:33N 29°53' W 089°57'0 0.0
2016-Jul-08 14:33N 29°53' W 089°57'0 0.0
2016-Jul-08 13:33N 29°53' W 089°57'0 0.0
2016-Jul-08 12:30N 29°53' W 089°57'0 0.0
2016-Jul-08 11:33N 29°53' W 089°57'0 0.0
2016-Jul-08 10:33N 29°53' W 089°57'0 0.0
2016-Jul-08 09:33N 29°53' W 089°57'0 0.0
2016-Jul-08 08:33N 29°53' W 089°57'0 0.0
2016-Jul-08 07:30N 29°53' W 089°57'0 0.0
2016-Jul-08 06:33N 29°53' W 089°57'0 0.0
2016-Jul-08 04:33N 29°53' W 089°57'0 0.0
2016-Jul-08 03:33N 29°53' W 089°57'0 0.0
2016-Jul-08 02:33N 29°53' W 089°57'0 0.0
2016-Jul-08 01:33N 29°53' W 089°57'1 1.4
2016-Jul-08 00:34N 29°52' W 089°58'12 9.9
2016-Jul-07 23:22N 29°40' W 089°57'247 7.5
2016-Jul-06 14:31N 29°20' W 094°41'9 9.0
2016-Jul-06 13:30N 29°25' W 094°50'10 9.8
2016-Jul-06 12:32N 29°33' W 094°55'1010.0
2016-Jul-06 11:33N 29°42' W 094°60'2 2.2
2016-Jul-06 10:33N 29°44' W 095°01'0 0.0
2016-Jul-06 09:33N 29°44' W 095°01'0 0.0
2016-Jul-06 08:33N 29°44' W 095°01'0 0.0
2016-Jul-06 07:33N 29°44' W 095°01'0 0.0
2016-Jul-06 06:33N 29°44' W 095°01'0 0.0
2016-Jul-06 05:27N 29°44' W 095°01'0 0.0
2016-Jul-06 04:30N 29°44' W 095°01'0 0.0
2016-Jul-06 03:33N 29°44' W 095°01'0 0.0
2016-Jul-06 02:33N 29°44' W 095°01'0 0.0
2016-Jul-06 01:18N 29°44' W 095°01'0 0.0
2016-Jul-06 00:33N 29°44' W 095°01'0 0.0
2016-Jul-05 23:30N 29°44' W 095°01'0 0.0
2016-Jul-05 22:33N 29°44' W 095°01'0 0.0
2016-Jul-05 21:33N 29°44' W 095°01'0 0.0
2016-Jul-05 20:18N 29°44' W 095°01'0 0.0
2016-Jul-05 19:33N 29°44' W 095°01'0 0.0
2016-Jul-05 18:33N 29°44' W 095°01'0 0.0
2016-Jul-05 17:30N 29°44' W 095°01'0 0.0
2016-Jul-05 16:24N 29°44' W 095°01'0 0.0
2016-Jul-05 15:33N 29°44' W 095°01'0 0.0
2016-Jul-05 14:33N 29°44' W 095°01'0 0.0
2016-Jul-05 13:30N 29°44' W 095°01'0 0.0
2016-Jul-05 12:33N 29°44' W 095°01'0 0.0
2016-Jul-05 11:33N 29°44' W 095°01'0 0.0
2016-Jul-05 10:27N 29°44' W 095°01'0 0.0
2016-Jul-05 09:33N 29°44' W 095°01'0 0.0
2016-Jul-05 08:33N 29°44' W 095°01'0 0.0
2016-Jul-05 07:33N 29°44' W 095°01'0 0.0
2016-Jul-05 06:33N 29°44' W 095°01'0 0.0
2016-Jul-05 04:30N 29°44' W 095°01'0 0.0
2016-Jul-05 03:33N 29°44' W 095°01'0 0.0
2016-Jul-05 02:33N 29°44' W 095°01'0 0.0
2016-Jul-05 01:30N 29°44' W 095°01'0 0.0
2016-Jul-05 00:33N 29°44' W 095°01'0 0.0
2016-Jul-04 23:33N 29°44' W 095°01'0 0.0
2016-Jul-04 22:33N 29°44' W 095°01'0 0.0
2016-Jul-04 21:30N 29°44' W 095°01'0 0.0
2016-Jul-04 20:33N 29°44' W 095°01'0 0.0
2016-Jul-04 19:33N 29°44' W 095°01'0 0.0
2016-Jul-04 18:33N 29°44' W 095°01'0 0.0
2016-Jul-04 17:33N 29°44' W 095°01'0 0.0
2016-Jul-04 16:33N 29°44' W 095°01'0 0.0
2016-Jul-04 15:33N 29°44' W 095°01'0 0.0
2016-Jul-04 14:33N 29°44' W 095°01'0 0.0
2016-Jul-04 13:30N 29°44' W 095°01'0 0.0
2016-Jul-04 12:33N 29°44' W 095°01'0 0.0
2016-Jul-04 11:30N 29°44' W 095°01'0 0.0
2016-Jul-04 10:33N 29°44' W 095°01'0 0.0
2016-Jul-04 09:33N 29°44' W 095°01'0 0.0
2016-Jul-04 08:30N 29°44' W 095°01'0 0.0
2016-Jul-04 07:33N 29°44' W 095°01'0 0.0
2016-Jul-04 06:33N 29°44' W 095°01'  
Track history (hours):
 
Tides and Currents Weather Stations Pressure Air Temp Water Temp Dewpoint Dewpoint Depression Visibility Wind Speed Wind Dir Waves Ship Positions

Paramount Hamilton

Last reported at 2016-Jul-14 06:23 UTC. Time now 2016-Jul-29 21:46 UTC.
Position N 26°34' W 079°42'.
Warning: this ship's position is 15 days out of date.

Length 249 m; draft 11.7 m.

Type: Tanker. MMSI: 235076274.

Date/timePositionNaut miles runAvg speedWind from/ knotsBaromVisibWave heightAir tempDewpointWater temp
2016-Jul-14 06:23N 26°34' W 079°42'1517.7
2016-Jul-14 05:33N 26°19' W 079°44'1817.6
2016-Jul-14 04:33N 26°02' W 079°46'  
2016-Jul-11 22:33N 29°43' W 089°59'1010.0
2016-Jul-11 21:33N 29°53' W 089°57'6 5.6
2016-Jul-11 20:33N 29°57' W 090°01'7 7.1
2016-Jul-11 19:33N 29°57' W 090°09'  
2016-Jul-09 13:26N 29°58' W 090°17'5 6.3
2016-Jul-09 12:33N 29°56' W 090°11'5 5.1
2016-Jul-09 11:33N 29°55' W 090°06'6 5.7
2016-Jul-09 10:33N 29°56' W 089°59'3 3.5
2016-Jul-09 09:33N 29°53' W 089°57'0 0.0
2016-Jul-09 08:33N 29°53' W 089°57'0 0.0
2016-Jul-09 07:33N 29°53' W 089°57'0 0.0
2016-Jul-09 06:27N 29°53' W 089°57'0 0.0
2016-Jul-09 04:30N 29°53' W 089°57'0 0.0
2016-Jul-09 03:27N 29°53' W 089°57'0 0.0
2016-Jul-09 02:33N 29°53' W 089°57'0 0.0
2016-Jul-09 01:33N 29°53' W 089°57'0 0.0
2016-Jul-09 00:33N 29°53' W 089°57'0 0.0
2016-Jul-08 23:33N 29°53' W 089°57'0 0.0
2016-Jul-08 22:33N 29°53' W 089°57'0 0.0
2016-Jul-08 21:33N 29°53' W 089°57'0 0.0
2016-Jul-08 20:33N 29°53' W 089°57'0 0.0
2016-Jul-08 19:33N 29°53' W 089°57'0 0.0
2016-Jul-08 18:33N 29°53' W 089°57'0 0.0
2016-Jul-08 17:30N 29°53' W 089°57'0 0.0
2016-Jul-08 16:33N 29°53' W 089°57'0 0.0
2016-Jul-08 15:33N 29°53' W 089°57'0 0.0
2016-Jul-08 14:33N 29°53' W 089°57'0 0.0
2016-Jul-08 13:33N 29°53' W 089°57'0 0.0
2016-Jul-08 12:30N 29°53' W 089°57'0 0.0
2016-Jul-08 11:33N 29°53' W 089°57'0 0.0
2016-Jul-08 10:33N 29°53' W 089°57'0 0.0
2016-Jul-08 09:33N 29°53' W 089°57'0 0.0
2016-Jul-08 08:33N 29°53' W 089°57'0 0.0
2016-Jul-08 07:30N 29°53' W 089°57'0 0.0
2016-Jul-08 06:33N 29°53' W 089°57'0 0.0
2016-Jul-08 04:33N 29°53' W 089°57'0 0.0
2016-Jul-08 03:33N 29°53' W 089°57'0 0.0
2016-Jul-08 02:33N 29°53' W 089°57'0 0.0
2016-Jul-08 01:33N 29°53' W 089°57'1 1.4
2016-Jul-08 00:34N 29°52' W 089°58'12 9.9
2016-Jul-07 23:22N 29°40' W 089°57'247 7.5
2016-Jul-06 14:31N 29°20' W 094°41'9 9.0
2016-Jul-06 13:30N 29°25' W 094°50'10 9.8
2016-Jul-06 12:32N 29°33' W 094°55'1010.0
2016-Jul-06 11:33N 29°42' W 094°60'2 2.2
2016-Jul-06 10:33N 29°44' W 095°01'0 0.0
2016-Jul-06 09:33N 29°44' W 095°01'0 0.0
2016-Jul-06 08:33N 29°44' W 095°01'0 0.0
2016-Jul-06 07:33N 29°44' W 095°01'0 0.0
2016-Jul-06 06:33N 29°44' W 095°01'0 0.0
2016-Jul-06 05:27N 29°44' W 095°01'0 0.0
2016-Jul-06 04:30N 29°44' W 095°01'0 0.0
2016-Jul-06 03:33N 29°44' W 095°01'0 0.0
2016-Jul-06 02:33N 29°44' W 095°01'0 0.0
2016-Jul-06 01:18N 29°44' W 095°01'0 0.0
2016-Jul-06 00:33N 29°44' W 095°01'0 0.0
2016-Jul-05 23:30N 29°44' W 095°01'0 0.0
2016-Jul-05 22:33N 29°44' W 095°01'0 0.0
2016-Jul-05 21:33N 29°44' W 095°01'0 0.0
2016-Jul-05 20:18N 29°44' W 095°01'0 0.0
2016-Jul-05 19:33N 29°44' W 095°01'0 0.0
2016-Jul-05 18:33N 29°44' W 095°01'0 0.0
2016-Jul-05 17:30N 29°44' W 095°01'0 0.0
2016-Jul-05 16:24N 29°44' W 095°01'0 0.0
2016-Jul-05 15:33N 29°44' W 095°01'0 0.0
2016-Jul-05 14:33N 29°44' W 095°01'0 0.0
2016-Jul-05 13:30N 29°44' W 095°01'0 0.0
2016-Jul-05 12:33N 29°44' W 095°01'0 0.0
2016-Jul-05 11:33N 29°44' W 095°01'0 0.0
2016-Jul-05 10:27N 29°44' W 095°01'0 0.0
2016-Jul-05 09:33N 29°44' W 095°01'0 0.0
2016-Jul-05 08:33N 29°44' W 095°01'0 0.0
2016-Jul-05 07:33N 29°44' W 095°01'0 0.0
2016-Jul-05 06:33N 29°44' W 095°01'0 0.0
2016-Jul-05 04:30N 29°44' W 095°01'0 0.0
2016-Jul-05 03:33N 29°44' W 095°01'0 0.0
2016-Jul-05 02:33N 29°44' W 095°01'0 0.0
2016-Jul-05 01:30N 29°44' W 095°01'0 0.0
2016-Jul-05 00:33N 29°44' W 095°01'0 0.0
2016-Jul-04 23:33N 29°44' W 095°01'0 0.0
2016-Jul-04 22:33N 29°44' W 095°01'0 0.0
2016-Jul-04 21:30N 29°44' W 095°01'0 0.0
2016-Jul-04 20:33N 29°44' W 095°01'0 0.0
2016-Jul-04 19:33N 29°44' W 095°01'0 0.0
2016-Jul-04 18:33N 29°44' W 095°01'0 0.0
2016-Jul-04 17:33N 29°44' W 095°01'0 0.0
2016-Jul-04 16:33N 29°44' W 095°01'0 0.0
2016-Jul-04 15:33N 29°44' W 095°01'0 0.0
2016-Jul-04 14:33N 29°44' W 095°01'0 0.0
2016-Jul-04 13:30N 29°44' W 095°01'0 0.0
2016-Jul-04 12:33N 29°44' W 095°01'0 0.0
2016-Jul-04 11:30N 29°44' W 095°01'0 0.0
2016-Jul-04 10:33N 29°44' W 095°01'0 0.0
2016-Jul-04 09:33N 29°44' W 095°01'0 0.0
2016-Jul-04 08:30N 29°44' W 095°01'0 0.0
2016-Jul-04 07:33N 29°44' W 095°01'0 0.0
2016-Jul-04 06:33N 29°44' W 095°01'  

Dump ship's entire track history